Time;durP1;ratioP1;P1;durP2;ratioP2;P2;SDS_P1;SDS_P2;PMS_P1;PMS_P2;Temp;Humidity;BMP_temperature;BMP_pressure;BME280_temperature;BME280_humidity;BME280_pressure;Samples;Min_cycle;Max_cycle;Signal;HPM_P1;HPM_P2
2022/09/30 00:01:33;;;;;;;7.53;5.33;;;8.40;99.90;;;;;;4990847;28;20053;-72
2022/09/30 00:04:00;;;;;;;8.97;5.27;;;8.30;99.90;;;;;;4973687;28;20050;-72
2022/09/30 00:06:28;;;;;;;7.97;4.80;;;8.30;99.90;;;;;;4962469;28;20618;-73
2022/09/30 00:08:54;;;;;;;5.77;4.33;;;8.30;99.90;;;;;;4986778;28;20130;-72
2022/09/30 00:11:24;;;;;;;8.07;4.20;;;8.20;99.90;;;;;;4990930;28;20481;-72
2022/09/30 00:13:51;;;;;;;8.23;3.80;;;8.00;99.90;;;;;;4990770;28;20072;-72
2022/09/30 00:16:18;;;;;;;7.70;3.90;;;8.00;99.90;;;;;;4986829;28;20050;-72
2022/09/30 00:18:44;;;;;;;6.23;4.10;;;8.00;99.90;;;;;;4985321;28;20046;-72
2022/09/30 00:21:11;;;;;;;4.57;3.80;;;8.10;99.90;;;;;;4957996;28;20529;-72
2022/09/30 00:23:38;;;;;;;9.13;4.53;;;8.00;99.90;;;;;;4988010;28;20512;-72
2022/09/30 00:26:07;;;;;;;5.20;4.10;;;8.00;99.90;;;;;;4977344;28;20052;-72
2022/09/30 00:28:33;;;;;;;5.23;3.83;;;8.00;99.90;;;;;;4983858;28;20042;-72
2022/09/30 00:31:00;;;;;;;6.50;4.07;;;8.00;99.90;;;;;;5010746;28;20077;-72
2022/09/30 00:33:26;;;;;;;4.13;3.60;;;7.80;99.90;;;;;;5010586;28;20412;-72
2022/09/30 00:35:52;;;;;;;4.10;3.40;;;7.80;99.90;;;;;;4993207;28;20050;-72
2022/09/30 00:38:18;;;;;;;6.17;3.33;;;7.80;99.90;;;;;;4960627;28;20042;-72
2022/09/30 00:40:43;;;;;;;6.10;3.47;;;7.70;99.90;;;;;;4967466;28;20078;-72
2022/09/30 00:43:19;;;;;;;5.10;3.37;;;7.70;99.90;;;;;;4973339;28;20050;-72
2022/09/30 00:45:58;;;;;;;5.53;3.30;;;7.70;99.90;;;;;;5010638;28;20520;-73
2022/09/30 00:48:37;;;;;;;5.60;3.23;;;7.70;99.90;;;;;;4991043;28;20050;-72
2022/09/30 00:51:05;;;;;;;5.93;3.33;;;7.70;99.90;;;;;;4991615;28;20050;-72
2022/09/30 00:53:55;;;;;;;5.23;3.20;;;7.60;99.90;;;;;;4956759;28;20048;-72
2022/09/30 00:56:25;;;;;;;6.93;4.30;;;7.50;99.90;;;;;;4975800;28;20231;-73
2022/09/30 00:59:02;;;;;;;7.47;3.80;;;7.50;99.90;;;;;;4996531;28;20073;-72
2022/09/30 01:01:29;;;;;;;6.00;4.73;;;7.60;99.90;;;;;;4993274;28;20132;-72
2022/09/30 01:04:10;;;;;;;8.80;5.43;;;7.60;99.90;;;;;;5009602;28;20405;-72
2022/09/30 01:06:36;;;;;;;8.77;4.78;;;7.60;99.90;;;;;;4997075;28;20041;-73
2022/09/30 01:09:03;;;;;;;7.90;5.20;;;7.50;99.90;;;;;;4990370;28;20038;-72
2022/09/30 01:11:28;;;;;;;9.53;5.70;;;7.50;99.90;;;;;;4993038;28;20212;-72
2022/09/30 01:13:58;;;;;;;6.93;4.90;;;7.60;99.90;;;;;;4995329;28;20645;-72
2022/09/30 01:16:26;;;;;;;7.07;4.53;;;7.60;99.90;;;;;;4983346;28;20057;-72
2022/09/30 01:19:16;;;;;;;7.50;4.30;;;7.60;99.90;;;;;;4975272;28;20050;-72
2022/09/30 01:22:01;;;;;;;10.87;6.77;;;7.60;99.90;;;;;;4992693;28;20069;-72
2022/09/30 01:24:41;;;;;;;13.33;6.30;;;7.70;99.90;;;;;;4992085;28;20069;-72
2022/09/30 01:27:28;;;;;;;9.43;6.40;;;7.80;99.90;;;;;;4969108;28;20389;-72
2022/09/30 01:30:02;;;;;;;10.07;6.17;;;7.90;99.90;;;;;;5010827;28;20509;-72
2022/09/30 01:32:37;;;;;;;10.73;6.50;;;7.80;99.90;;;;;;4991970;28;20555;-72
2022/09/30 01:35:41;;;;;;;12.23;6.23;;;7.90;99.90;;;;;;4989861;28;20105;-72
2022/09/30 01:38:22;;;;;;;7.93;5.53;;;7.90;99.90;;;;;;4956395;28;21030;-72
2022/09/30 01:41:00;;;;;;;9.88;6.05;;;7.80;99.90;;;;;;5010807;28;20042;-72
2022/09/30 01:43:46;;;;;;;9.50;6.17;;;7.80;99.90;;;;;;4991805;28;20100;-72
2022/09/30 01:46:20;;;;;;;7.57;5.70;;;7.80;99.90;;;;;;4991700;28;20125;-72
2022/09/30 01:49:10;;;;;;;9.50;6.00;;;7.90;99.90;;;;;;5007737;28;20054;-72
2022/09/30 01:51:52;;;;;;;10.63;5.97;;;7.80;99.90;;;;;;4996296;28;20057;-72
2022/09/30 01:54:25;;;;;;;10.00;5.50;;;7.80;99.90;;;;;;4995919;28;20049;-72
2022/09/30 01:56:57;;;;;;;10.27;5.27;;;7.80;99.90;;;;;;4981043;28;20073;-72
2022/09/30 01:59:36;;;;;;;9.77;5.90;;;7.80;99.90;;;;;;4995749;28;20386;-73
2022/09/30 02:02:09;;;;;;;8.53;5.77;;;7.90;99.90;;;;;;5014348;28;20046;-73
2022/09/30 02:04:41;;;;;;;7.53;5.63;;;7.80;99.90;;;;;;5013130;28;20048;-73
2022/09/30 02:07:11;;;;;;;8.73;5.00;;;7.80;99.90;;;;;;4979874;28;20066;-72
2022/09/30 02:09:48;;;;;;;9.17;5.83;;;7.80;99.90;;;;;;5008787;28;20039;-73
2022/09/30 02:12:18;;;;;;;9.57;5.07;;;7.80;99.90;;;;;;5001871;28;20172;-72
2022/09/30 02:14:49;;;;;;;7.00;4.47;;;7.80;99.90;;;;;;4998562;28;20068;-72
2022/09/30 02:17:57;;;;;;;6.43;4.50;;;7.70;99.90;;;;;;4984870;28;20378;-72
2022/09/30 02:20:30;;;;;;;7.50;3.73;;;7.60;99.90;;;;;;4938478;29;20063;-72
2022/09/30 02:23:06;;;;;;;8.17;4.20;;;7.60;99.90;;;;;;4969033;28;20456;-72
2022/09/30 02:25:38;;;;;;;5.83;3.20;;;7.50;99.90;;;;;;5008338;28;20054;-73
2022/09/30 02:28:10;;;;;;;4.75;2.83;;;7.30;99.90;;;;;;4997278;28;20050;-73
2022/09/30 02:30:42;;;;;;;3.73;2.73;;;7.20;99.90;;;;;;4996160;28;20402;-72
2022/09/30 02:33:24;;;;;;;5.60;3.97;;;7.20;99.90;;;;;;5012490;28;20172;-72
2022/09/30 02:35:56;;;;;;;6.97;2.33;;;7.10;99.90;;;;;;4987228;28;20088;-72
2022/09/30 02:38:27;;;;;;;3.40;2.00;;;7.00;99.90;;;;;;4960868;28;20513;-72
2022/09/30 02:41:01;;;;;;;;;;;6.90;99.90;;;;;;5004567;28;20056;-73
2022/09/30 02:43:27;;;;;;;2.77;1.63;;;6.80;99.90;;;;;;5012528;28;19929;-73
2022/09/30 02:46:15;;;;;;;3.77;1.40;;;6.80;99.90;;;;;;5001686;28;20053;-73
2022/09/30 02:48:58;;;;;;;2.20;1.53;;;6.70;99.90;;;;;;4990472;28;20546;-72
2022/09/30 02:51:58;;;;;;;1.63;1.50;;;6.70;99.90;;;;;;4995756;28;20081;-72
2022/09/30 02:54:51;;;;;;;1.57;1.20;;;6.80;99.90;;;;;;4994769;28;20216;-73
2022/09/30 02:57:48;;;;;;;3.37;1.10;;;6.80;99.90;;;;;;4979639;28;20050;-72
2022/09/30 03:00:15;;;;;;;2.77;1.43;;;6.70;99.90;;;;;;5011552;28;20066;-72
2022/09/30 03:02:41;;;;;;;2.80;1.53;;;6.60;99.90;;;;;;4994588;28;20402;-72
2022/09/30 03:05:09;;;;;;;1.80;1.53;;;6.60;99.90;;;;;;5002094;28;20567;-72
2022/09/30 03:07:35;;;;;;;1.40;0.90;;;6.50;99.90;;;;;;4978967;28;20046;-72
2022/09/30 03:10:14;;;;;;;2.03;1.03;;;6.40;99.90;;;;;;4995269;28;20039;-73
2022/09/30 03:12:59;;;;;;;2.73;1.60;;;6.40;99.90;;;;;;5007717;28;20097;-73
2022/09/30 03:15:44;;;;;;;1.37;0.77;;;6.40;99.90;;;;;;4990493;28;20049;-72
2022/09/30 03:18:25;;;;;;;0.90;0.80;;;6.40;99.90;;;;;;4969334;28;20049;-72
2022/09/30 03:21:25;;;;;;;1.20;0.68;;;6.30;99.90;;;;;;4975587;28;20501;-72
2022/09/30 03:24:14;;;;;;;0.90;0.80;;;6.40;99.90;;;;;;4991227;28;20049;-72
2022/09/30 03:26:59;;;;;;;2.50;2.00;;;6.30;99.90;;;;;;4999065;28;20195;-73
2022/09/30 03:29:37;;;;;;;2.63;2.43;;;6.50;99.90;;;;;;4993813;28;20050;-72
2022/09/30 03:32:17;;;;;;;7.57;4.23;;;6.60;99.90;;;;;;4994451;28;20058;-73
2022/09/30 03:35:02;;;;;;;7.30;5.07;;;6.80;99.90;;;;;;4993406;28;20046;-72
2022/09/30 03:37:50;;;;;;;8.77;6.00;;;6.90;99.90;;;;;;4986742;28;20049;-73
2022/09/30 03:40:34;;;;;;;7.13;6.03;;;7.00;99.90;;;;;;5012616;28;20045;-72
2022/09/30 03:43:11;;;;;;;10.23;7.23;;;7.10;99.90;;;;;;5011447;28;20425;-73
2022/09/30 03:46:05;;;;;;;9.37;6.87;;;7.00;99.90;;;;;;4998497;28;20054;-73
2022/09/30 03:48:34;;;;;;;11.70;8.00;;;7.10;99.90;;;;;;4993334;28;20042;-72
2022/09/30 03:51:00;;;;;;;11.07;7.67;;;7.00;99.90;;;;;;4994347;28;20505;-73
2022/09/30 03:53:27;;;;;;;10.80;8.20;;;7.00;99.90;;;;;;4974005;28;20528;-72
2022/09/30 03:55:53;;;;;;;19.10;13.73;;;7.00;99.90;;;;;;4987027;28;20058;-72
2022/09/30 03:58:22;;;;;;;14.33;10.67;;;7.00;99.90;;;;;;4977907;28;20065;-72
2022/09/30 04:00:53;;;;;;;15.00;12.93;;;6.90;99.90;;;;;;4994555;28;20252;-72
2022/09/30 04:03:20;;;;;;;20.42;14.70;;;6.90;99.90;;;;;;4993616;28;20509;-72
2022/09/30 04:05:47;;;;;;;16.00;11.67;;;6.80;99.90;;;;;;4998051;28;20054;-72
2022/09/30 04:08:13;;;;;;;10.37;8.70;;;6.80;99.90;;;;;;4958143;28;20054;-72
2022/09/30 04:10:40;;;;;;;12.17;7.60;;;6.80;99.90;;;;;;4988845;28;20054;-72
2022/09/30 04:13:07;;;;;;;9.60;7.60;;;6.80;99.90;;;;;;4985341;28;20050;-72
2022/09/30 04:15:33;;;;;;;39.47;23.57;;;6.70;99.90;;;;;;5013944;28;20087;-72
2022/09/30 04:17:59;;;;;;;44.40;26.17;;;6.60;99.90;;;;;;4960935;28;20512;-71
2022/09/30 04:20:25;;;;;;;24.33;16.20;;;6.60;99.90;;;;;;5011814;28;20053;-72
2022/09/30 04:22:50;;;;;;;47.73;26.87;;;6.50;99.90;;;;;;5010375;28;20045;-72
2022/09/30 04:25:16;;;;;;;24.33;15.60;;;6.60;99.90;;;;;;4990404;28;20061;-72
2022/09/30 04:27:42;;;;;;;43.30;26.27;;;6.60;99.90;;;;;;4959644;28;20041;-71
2022/09/30 04:30:08;;;;;;;27.17;16.20;;;6.60;99.90;;;;;;4976593;28;20054;-72
2022/09/30 04:32:33;;;;;;;23.97;15.73;;;6.60;99.90;;;;;;4972922;28;20058;-72
2022/09/30 04:34:59;;;;;;;22.73;13.93;;;6.50;99.90;;;;;;4987173;28;20042;-72
2022/09/30 04:37:24;;;;;;;14.03;10.77;;;6.60;99.90;;;;;;4961746;28;20064;-70
2022/09/30 04:39:50;;;;;;;19.03;12.83;;;6.50;99.90;;;;;;5011402;28;20046;-72
2022/09/30 04:42:17;;;;;;;29.90;15.77;;;6.50;99.90;;;;;;5010042;28;20046;-71
2022/09/30 04:44:42;;;;;;;54.60;25.37;;;6.50;99.90;;;;;;5008602;28;20073;-72
2022/09/30 04:47:08;;;;;;;44.50;20.83;;;6.50;99.90;;;;;;4995217;28;20521;-71
2022/09/30 04:49:34;;;;;;;24.87;15.13;;;6.50;99.90;;;;;;4992951;28;20444;-72
2022/09/30 04:52:00;;;;;;;33.20;17.93;;;6.50;99.90;;;;;;4990154;28;20042;-72
2022/09/30 04:54:26;;;;;;;17.17;12.20;;;6.40;99.90;;;;;;4991771;28;20046;-72
2022/09/30 04:56:51;;;;;;;17.63;11.43;;;6.40;99.90;;;;;;4961714;28;20099;-72
2022/09/30 04:59:17;;;;;;;19.00;12.00;;;6.40;99.90;;;;;;4995954;28;20078;-71
2022/09/30 05:01:43;;;;;;;8.67;7.03;;;6.30;99.90;;;;;;4973850;28;20054;-71
2022/09/30 05:04:11;;;;;;;7.87;6.47;;;6.30;99.90;;;;;;4987535;28;20046;-71
2022/09/30 05:06:39;;;;;;;12.87;8.00;;;6.10;99.90;;;;;;4979547;28;20112;-71
2022/09/30 05:09:05;;;;;;;12.33;8.33;;;6.20;99.90;;;;;;5007956;28;20405;-71
2022/09/30 05:11:31;;;;;;;17.57;10.27;;;6.20;99.90;;;;;;4976619;28;20060;-71
2022/09/30 05:13:57;;;;;;;11.43;8.60;;;6.30;99.90;;;;;;4994581;28;20042;-71
2022/09/30 05:16:22;;;;;;;11.77;7.80;;;6.10;99.90;;;;;;4982464;28;20050;-71
2022/09/30 05:18:48;;;;;;;11.57;8.70;;;6.10;99.90;;;;;;4959736;28;20062;-71
2022/09/30 05:21:18;;;;;;;8.67;7.47;;;6.20;99.90;;;;;;5010715;28;20049;-70
2022/09/30 05:23:44;;;;;;;12.47;6.97;;;6.20;99.90;;;;;;4989004;28;20054;-71
2022/09/30 05:26:10;;;;;;;5.50;4.57;;;5.90;99.90;;;;;;5002075;28;20049;-71
2022/09/30 05:28:35;;;;;;;7.27;4.17;;;5.80;99.90;;;;;;4983826;28;20125;-72
2022/09/30 05:31:05;;;;;;;6.70;3.63;;;5.60;99.90;;;;;;5007607;28;20485;-72
2022/09/30 05:33:31;;;;;;;5.93;3.67;;;5.60;99.90;;;;;;4978761;28;20502;-72
2022/09/30 05:36:03;;;;;;;3.20;2.80;;;5.50;99.90;;;;;;4982323;28;20042;-72
2022/09/30 05:38:29;;;;;;;3.90;3.33;;;5.40;99.90;;;;;;4988248;28;20050;-72
2022/09/30 05:40:54;;;;;;;9.10;5.87;;;5.40;99.90;;;;;;4984113;28;20096;-72
2022/09/30 05:43:20;;;;;;;9.70;6.50;;;5.40;99.90;;;;;;4988687;28;20054;-72
2022/09/30 05:45:54;;;;;;;11.33;7.63;;;5.60;99.90;;;;;;4997623;28;20045;-72
2022/09/30 05:48:20;;;;;;;11.83;8.47;;;5.80;99.90;;;;;;4991774;28;20061;-72
2022/09/30 05:50:49;;;;;;;16.50;10.50;;;5.90;99.90;;;;;;4990988;28;20042;-72
2022/09/30 05:53:17;;;;;;;12.70;9.40;;;6.00;99.90;;;;;;4991478;28;20042;-72
2022/09/30 05:55:46;;;;;;;13.50;10.53;;;6.00;99.90;;;;;;5009385;28;20164;-72
2022/09/30 05:58:13;;;;;;;9.53;7.67;;;6.00;99.90;;;;;;4993685;28;20042;-72
2022/09/30 06:00:43;;;;;;;7.10;5.07;;;6.00;99.90;;;;;;4992743;28;20444;-72
2022/09/30 06:03:10;;;;;;;6.00;4.87;;;5.80;99.90;;;;;;4975517;28;20049;-72
2022/09/30 06:05:36;;;;;;;5.53;4.70;;;5.60;99.90;;;;;;4976474;28;20140;-72
2022/09/30 06:08:03;;;;;;;4.23;3.83;;;5.60;99.90;;;;;;4975616;28;20121;-72
2022/09/30 06:10:29;;;;;;;3.53;3.23;;;5.60;99.90;;;;;;5010211;28;20045;-72
2022/09/30 06:12:57;;;;;;;3.57;3.27;;;5.70;99.90;;;;;;4985237;28;20456;-72
2022/09/30 06:15:24;;;;;;;7.30;3.07;;;5.60;99.90;;;;;;5004975;28;20049;-72
2022/09/30 06:17:53;;;;;;;4.63;3.43;;;5.80;99.90;;;;;;4975411;28;20045;-72
2022/09/30 06:20:19;;;;;;;8.33;5.97;;;5.90;99.90;;;;;;5009465;28;20058;-72
2022/09/30 06:22:45;;;;;;;11.20;8.13;;;6.10;99.90;;;;;;4988336;28;20133;-72
2022/09/30 06:25:11;;;;;;;11.20;8.63;;;6.30;99.90;;;;;;4992025;28;20132;-72
2022/09/30 06:27:37;;;;;;;11.60;8.27;;;6.50;99.90;;;;;;4975951;28;20045;-71
2022/09/30 06:30:06;;;;;;;11.17;8.07;;;6.60;99.90;;;;;;4978199;28;20549;-72
2022/09/30 06:32:32;;;;;;;13.00;7.97;;;6.70;99.90;;;;;;4980284;28;20054;-72
2022/09/30 06:34:57;;;;;;;10.37;7.40;;;6.70;99.90;;;;;;4985328;28;20045;-72
2022/09/30 06:37:24;;;;;;;9.37;7.30;;;6.70;99.90;;;;;;4980293;28;20054;-72
2022/09/30 06:39:50;;;;;;;9.47;7.57;;;6.70;99.90;;;;;;4979497;28;20052;-72
2022/09/30 06:42:17;;;;;;;9.30;7.23;;;6.70;99.90;;;;;;4994751;28;20493;-72
2022/09/30 06:44:44;;;;;;;12.57;7.70;;;6.70;99.90;;;;;;4990111;28;20038;-72
2022/09/30 06:47:12;;;;;;;9.60;7.90;;;6.80;99.90;;;;;;4992807;28;20065;-72
2022/09/30 06:49:38;;;;;;;12.63;8.30;;;6.80;99.90;;;;;;5012525;28;20100;-73
2022/09/30 06:52:04;;;;;;;11.43;8.63;;;6.90;99.90;;;;;;5000333;28;20054;-71
2022/09/30 06:54:30;;;;;;;11.40;8.47;;;7.00;99.90;;;;;;4995126;28;20112;-72
2022/09/30 06:56:58;;;;;;;11.43;9.00;;;7.00;99.90;;;;;;4997701;28;20042;-72
2022/09/30 06:59:24;;;;;;;10.17;8.80;;;7.00;99.90;;;;;;4993403;28;20054;-72
2022/09/30 07:01:50;;;;;;;8.80;7.83;;;7.10;99.90;;;;;;4967156;28;20057;-72
2022/09/30 07:04:15;;;;;;;9.63;7.60;;;7.20;99.90;;;;;;4988248;28;20436;-72
2022/09/30 07:06:41;;;;;;;8.50;7.57;;;7.20;99.90;;;;;;4963647;28;20145;-72
2022/09/30 07:09:09;;;;;;;8.87;7.00;;;7.20;99.90;;;;;;4985010;28;20049;-72
2022/09/30 07:11:38;;;;;;;8.07;6.00;;;7.40;99.90;;;;;;4987127;28;20045;-72
2022/09/30 07:14:05;;;;;;;8.87;6.80;;;7.40;99.90;;;;;;4985077;28;20575;-72
2022/09/30 07:16:33;;;;;;;9.63;6.47;;;7.50;99.90;;;;;;4989881;28;20494;-72
2022/09/30 07:19:00;;;;;;;7.87;6.30;;;7.50;99.90;;;;;;4984542;28;20045;-72
2022/09/30 07:21:26;;;;;;;7.73;6.17;;;7.50;99.90;;;;;;5004184;28;20077;-71
2022/09/30 07:23:53;;;;;;;9.30;6.50;;;7.70;99.90;;;;;;5002657;28;20054;-72
2022/09/30 07:26:22;;;;;;;7.57;6.07;;;7.70;99.90;;;;;;4957520;28;20159;-72
2022/09/30 07:28:49;;;;;;;7.00;5.63;;;7.90;99.90;;;;;;4980939;28;20474;-72
2022/09/30 07:31:19;;;;;;;7.97;6.20;;;7.90;99.90;;;;;;5003095;28;20026;-73
2022/09/30 07:33:46;;;;;;;7.43;6.30;;;8.00;99.90;;;;;;4985478;28;20034;-72
2022/09/30 07:36:14;;;;;;;8.47;6.43;;;8.10;99.90;;;;;;4973520;28;20065;-72
2022/09/30 07:38:41;;;;;;;8.97;7.13;;;8.10;99.90;;;;;;4982112;28;20497;-72
2022/09/30 07:41:13;;;;;;;7.77;6.90;;;8.30;99.90;;;;;;4980216;28;20497;-72
2022/09/30 07:43:41;;;;;;;8.10;6.53;;;8.40;99.90;;;;;;4990037;28;20914;-72
2022/09/30 07:46:23;;;;;;;9.80;6.83;;;8.60;99.90;;;;;;4991697;28;20145;-73
2022/09/30 07:48:51;;;;;;;9.00;6.30;;;8.70;99.90;;;;;;5001117;28;20046;-72
2022/09/30 07:51:28;;;;;;;10.40;6.50;;;8.80;99.90;;;;;;5001360;28;20404;-72
2022/09/30 07:53:56;;;;;;;8.10;5.60;;;8.80;99.90;;;;;;5001176;28;20050;-73
2022/09/30 07:56:23;;;;;;;7.97;5.37;;;9.20;99.90;;;;;;4999216;28;20404;-72
2022/09/30 07:58:53;;;;;;;8.33;5.43;;;9.10;99.90;;;;;;5000167;28;20060;-72
2022/09/30 08:01:18;;;;;;;8.53;5.17;;;9.30;99.90;;;;;;5008345;28;20435;-72
2022/09/30 08:03:44;;;;;;;6.73;4.63;;;9.60;99.90;;;;;;5003061;28;20073;-72
2022/09/30 08:06:16;;;;;;;7.00;4.70;;;9.70;99.90;;;;;;5004426;28;20156;-72
2022/09/30 08:08:44;;;;;;;5.87;4.30;;;9.80;99.90;;;;;;4972347;28;20041;-72
2022/09/30 08:11:12;;;;;;;5.40;4.87;;;9.90;99.90;;;;;;4998792;28;20244;-72
2022/09/30 08:13:37;;;;;;;5.63;4.73;;;10.00;99.90;;;;;;4998587;28;20046;-73
2022/09/30 08:16:04;;;;;;;5.90;4.70;;;10.10;99.90;;;;;;5011203;28;20045;-73
2022/09/30 08:18:30;;;;;;;5.60;4.97;;;10.20;99.90;;;;;;4982619;28;20533;-72
2022/09/30 08:20:56;;;;;;;7.67;4.97;;;10.20;99.90;;;;;;4998493;28;20045;-73
2022/09/30 08:23:21;;;;;;;7.17;5.40;;;10.30;99.90;;;;;;5010541;28;20077;-73
2022/09/30 08:25:47;;;;;;;7.35;5.55;;;10.40;99.90;;;;;;5011846;28;20496;-73
2022/09/30 08:28:14;;;;;;;7.53;5.83;;;10.60;99.90;;;;;;4994771;28;20092;-72
2022/09/30 08:30:40;;;;;;;9.43;5.97;;;10.70;99.90;;;;;;4993751;28;20421;-73
2022/09/30 08:33:06;;;;;;;7.63;5.33;;;10.70;99.90;;;;;;5009849;28;20609;-72
2022/09/30 08:35:34;;;;;;;6.30;5.40;;;10.80;99.90;;;;;;4986548;28;20046;-73
2022/09/30 08:38:00;;;;;;;7.35;5.32;;;11.00;99.90;;;;;;4973050;28;20049;-73
2022/09/30 08:40:29;;;;;;;6.50;5.35;;;11.10;99.90;;;;;;4977659;28;20042;-73
2022/09/30 08:43:11;;;;;;;6.65;5.05;;;11.20;99.90;;;;;;4992015;28;20038;-72
2022/09/30 08:45:53;;;;;;;6.57;4.85;;;11.40;99.90;;;;;;4997306;28;20057;-73
2022/09/30 08:48:31;;;;;;;6.00;5.07;;;11.50;99.90;;;;;;4978369;28;20054;-73
2022/09/30 08:51:19;;;;;;;6.40;4.82;;;11.60;99.90;;;;;;4987449;28;20057;-72
2022/09/30 08:53:47;;;;;;;6.53;4.68;;;11.70;99.90;;;;;;4964678;28;20046;-73
2022/09/30 08:56:22;;;;;;;6.20;4.80;;;11.70;99.90;;;;;;5001261;28;20571;-73
2022/09/30 08:58:52;;;;;;;5.40;4.80;;;11.80;99.90;;;;;;4988563;28;20042;-73
2022/09/30 09:01:40;;;;;;;7.82;4.60;;;11.80;99.90;;;;;;5011194;28;20049;-73
2022/09/30 09:04:06;;;;;;;4.55;3.90;;;12.00;99.90;;;;;;4997166;28;20121;-73
2022/09/30 09:06:37;;;;;;;5.20;4.22;;;12.10;99.90;;;;;;4996555;28;20486;-73
2022/09/30 09:09:09;;;;;;;6.28;4.65;;;12.30;99.90;;;;;;5007473;28;20057;-73
2022/09/30 09:11:42;;;;;;;5.00;4.15;;;12.40;99.90;;;;;;4976926;28;20058;-73
2022/09/30 09:14:19;;;;;;;5.80;4.05;;;12.40;99.90;;;;;;4993665;28;20058;-73
2022/09/30 09:17:14;;;;;;;9.27;5.40;;;12.50;99.90;;;;;;5000925;28;20056;-73
2022/09/30 09:20:01;;;;;;;7.82;4.95;;;12.50;99.90;;;;;;4987927;28;20508;-73
2022/09/30 09:22:29;;;;;;;5.97;4.70;;;12.50;99.90;;;;;;4991956;28;20131;-73
2022/09/30 09:24:55;;;;;;;6.97;5.28;;;12.50;99.90;;;;;;4992789;28;20129;-73
2022/09/30 09:27:28;;;;;;;8.18;6.20;;;12.50;99.90;;;;;;4976720;28;20133;-73
2022/09/30 09:30:06;;;;;;;7.05;5.43;;;12.50;99.90;;;;;;4993156;28;20049;-73
2022/09/30 09:32:33;;;;;;;10.15;7.63;;;12.40;99.90;;;;;;4992019;28;20056;-73
2022/09/30 09:35:37;;;;;;;7.63;6.80;;;12.40;99.90;;;;;;4993288;28;20132;-74
2022/09/30 09:38:47;;;;;;;8.52;6.22;;;12.40;99.90;;;;;;4964199;28;20088;-73
2022/09/30 09:41:32;;;;;;;5.97;5.38;;;12.30;99.90;;;;;;4954179;28;20058;-73
2022/09/30 09:44:12;;;;;;;6.07;5.07;;;12.40;99.90;;;;;;4972617;28;20054;-73
2022/09/30 09:46:46;;;;;;;6.65;5.90;;;12.40;99.90;;;;;;4989287;28;20054;-74
2022/09/30 09:49:12;;;;;;;8.90;6.22;;;12.40;99.90;;;;;;4998951;28;20038;-73
2022/09/30 09:51:46;;;;;;;8.45;6.13;;;12.60;99.90;;;;;;4992561;28;20137;-73
2022/09/30 09:54:15;;;;;;;6.97;5.55;;;12.60;99.90;;;;;;4991617;28;20287;-73
2022/09/30 09:56:41;;;;;;;10.25;6.97;;;12.80;99.90;;;;;;4977507;28;20132;-74
2022/09/30 09:59:12;;;;;;;7.30;4.45;;;12.70;99.90;;;;;;4984205;28;20042;-73
2022/09/30 10:01:50;;;;;;;8.70;6.28;;;12.80;99.90;;;;;;4992382;28;20054;-73
2022/09/30 10:04:26;;;;;;;5.32;4.45;;;12.90;99.90;;;;;;4991701;28;20501;-73
2022/09/30 10:07:00;;;;;;;5.28;4.13;;;12.90;99.90;;;;;;4994700;28;20038;-73
2022/09/30 10:09:38;;;;;;;5.85;4.10;;;13.00;99.90;;;;;;4978815;28;20536;-73
2022/09/30 10:12:06;;;;;;;7.15;4.60;;;13.10;99.90;;;;;;4994704;28;20148;-73
2022/09/30 10:14:34;;;;;;;8.18;6.22;;;13.30;99.90;;;;;;4983329;28;20057;-73
2022/09/30 10:17:01;;;;;;;4.53;4.00;;;13.50;99.90;;;;;;4991252;28;20478;-73
2022/09/30 10:19:29;;;;;;;4.70;4.05;;;13.50;99.90;;;;;;4978865;28;20049;-72
2022/09/30 10:22:07;;;;;;;11.13;6.50;;;13.60;99.90;;;;;;4992663;28;20067;-73
2022/09/30 10:24:35;;;;;;;9.13;6.55;;;13.60;99.90;;;;;;4989374;28;20046;-73
2022/09/30 10:27:01;;;;;;;10.60;7.82;;;13.70;99.90;;;;;;4979157;28;20101;-72
2022/09/30 10:29:30;;;;;;;6.00;5.40;;;13.80;99.90;;;;;;4991668;28;20074;-73
2022/09/30 10:31:59;;;;;;;5.88;4.35;;;13.90;99.90;;;;;;4989361;28;20582;-73
2022/09/30 10:34:37;;;;;;;7.32;5.28;;;14.10;99.90;;;;;;4989285;28;20043;-72
2022/09/30 10:37:17;;;;;;;10.25;6.75;;;14.30;99.90;;;;;;4978605;28;20061;-73
2022/09/30 10:39:49;;;;;;;7.35;5.85;;;14.30;99.90;;;;;;4992552;28;20178;-72
2022/09/30 10:42:17;;;;;;;11.02;7.22;;;14.30;99.90;;;;;;4990063;28;20054;-72
2022/09/30 10:44:46;;;;;;;4.85;3.92;;;14.40;99.90;;;;;;4977276;28;20053;-72
2022/09/30 10:47:26;;;;;;;7.55;5.28;;;14.30;99.90;;;;;;4977644;28;20046;-73
2022/09/30 10:49:54;;;;;;;12.15;8.20;;;14.60;99.90;;;;;;4979449;28;20051;-73
2022/09/30 10:52:26;;;;;;;8.48;6.60;;;14.70;99.90;;;;;;4983592;28;20491;-71
2022/09/30 10:54:53;;;;;;;;;;;14.70;99.90;;;;;;4987743;28;20062;-73
2022/09/30 10:57:28;;;;;;;11.07;6.78;;;14.80;99.90;;;;;;4958341;28;20374;-72
2022/09/30 11:00:05;;;;;;;8.45;5.50;;;14.90;99.90;;;;;;4990801;28;20064;-72
2022/09/30 11:02:50;;;;;;;10.07;5.93;;;14.60;99.90;;;;;;4991284;28;20049;-72
2022/09/30 11:05:31;;;;;;;6.45;4.85;;;14.40;99.90;;;;;;4992792;28;20516;-73
2022/09/30 11:08:05;;;;;;;7.05;5.35;;;14.30;99.90;;;;;;4975738;28;20508;-73
2022/09/30 11:10:43;;;;;;;4.38;3.78;;;14.60;99.90;;;;;;4979436;28;20258;-72
2022/09/30 11:13:38;;;;;;;3.50;3.20;;;14.60;99.90;;;;;;4979158;28;20166;-73
2022/09/30 11:16:22;;;;;;;4.45;3.05;;;14.60;99.90;;;;;;4998127;28;20120;-73
2022/09/30 11:19:14;;;;;;;4.65;3.17;;;14.50;99.90;;;;;;4987171;28;20466;-73
2022/09/30 11:21:45;;;;;;;3.85;3.15;;;14.40;99.90;;;;;;4994289;28;20101;-72
2022/09/30 11:24:45;;;;;;;3.40;2.40;;;14.50;99.90;;;;;;5007101;28;20072;-73
2022/09/30 11:27:41;;;;;;;4.47;2.53;;;14.80;99.90;;;;;;4945394;28;20050;-73
2022/09/30 11:30:19;;;;;;;3.42;2.45;;;14.90;99.90;;;;;;5007970;28;20045;-72
2022/09/30 11:33:22;;;;;;;4.35;2.80;;;15.10;99.90;;;;;;4994304;28;20058;-73
2022/09/30 11:36:07;;;;;;;5.35;2.92;;;15.30;99.90;;;;;;5012678;28;20100;-73
2022/09/30 11:38:41;;;;;;;7.38;5.28;;;15.50;99.90;;;;;;4985347;28;20112;-73
2022/09/30 11:41:31;;;;;;;3.15;2.72;;;15.40;99.90;;;;;;5012764;28;20085;-73
2022/09/30 11:44:25;;;;;;;3.60;2.20;;;15.00;99.90;;;;;;4994025;28;20053;-72
2022/09/30 11:47:03;;;;;;;2.95;2.10;;;15.00;99.90;;;;;;4992426;28;20497;-73
2022/09/30 11:50:06;;;;;;;3.17;1.40;;;15.00;99.90;;;;;;5011048;28;20056;-73
2022/09/30 11:52:47;;;;;;;2.67;1.60;;;15.10;99.90;;;;;;5002989;28;20050;-73
2022/09/30 11:55:31;;;;;;;2.03;1.50;;;15.30;99.90;;;;;;4987872;28;20050;-73
2022/09/30 11:58:09;;;;;;;3.17;2.08;;;15.50;99.90;;;;;;4976241;28;20513;-73
2022/09/30 12:00:41;;;;;;;2.72;1.80;;;15.80;99.90;;;;;;4974891;28;20061;-72
2022/09/30 12:03:11;;;;;;;;;;;15.60;99.90;;;;;;4980724;28;20056;-73
2022/09/30 12:05:44;;;;;;;3.90;2.00;;;15.50;99.90;;;;;;5012054;28;20012;-73
2022/09/30 12:08:37;;;;;;;2.28;1.38;;;15.60;99.90;;;;;;4995152;28;20056;-72
2022/09/30 12:11:13;;;;;;;7.38;3.17;;;15.70;99.90;;;;;;5007716;28;20034;-73
2022/09/30 12:13:46;;;;;;;2.92;2.15;;;15.50;99.90;;;;;;4985793;28;20680;-73
2022/09/30 12:16:24;;;;;;;2.92;2.00;;;15.20;99.90;;;;;;4993233;28;20050;-73
2022/09/30 12:19:15;;;;;;;6.72;3.75;;;15.10;99.90;;;;;;5007839;28;20558;-73
2022/09/30 12:21:55;;;;;;;2.72;2.28;;;15.30;99.90;;;;;;4981956;28;20046;-73
2022/09/30 12:24:50;;;;;;;3.70;2.60;;;15.60;99.90;;;;;;4981125;28;20056;-72
2022/09/30 12:27:27;;;;;;;4.03;1.60;;;15.50;99.90;;;;;;4969152;28;20050;-72
2022/09/30 12:30:17;;;;;;;3.25;1.10;;;15.40;99.90;;;;;;4978898;28;20057;-73
2022/09/30 12:32:52;;;;;;;4.25;2.10;;;15.20;99.90;;;;;;4992758;28;20045;-73
2022/09/30 12:35:32;;;;;;;4.53;1.80;;;15.60;99.90;;;;;;5010551;28;20096;-73
2022/09/30 12:38:13;;;;;;;2.63;1.10;;;15.60;99.90;;;;;;4995541;28;20049;-73
2022/09/30 12:40:51;;;;;;;3.38;1.15;;;15.40;99.90;;;;;;5011287;28;20313;-73
2022/09/30 12:43:30;;;;;;;2.30;1.20;;;15.30;99.90;;;;;;5010364;28;20060;-73
2022/09/30 12:45:58;;;;;;;1.50;0.70;;;15.30;99.90;;;;;;5000398;28;20060;-73
2022/09/30 12:48:33;;;;;;;1.60;1.27;;;15.40;99.90;;;;;;4979078;28;20050;-73
2022/09/30 12:50:59;;;;;;;2.00;1.17;;;15.60;99.90;;;;;;4993419;28;20169;-73
2022/09/30 12:53:31;;;;;;;4.68;2.55;;;15.70;99.90;;;;;;5010114;28;20050;-73
2022/09/30 12:56:11;;;;;;;4.57;2.35;;;15.80;99.90;;;;;;4998374;28;20089;-74
2022/09/30 12:58:47;;;;;;;1.10;0.90;;;15.80;99.90;;;;;;4958085;28;20053;-72
2022/09/30 13:01:21;;;;;;;4.47;2.15;;;15.80;99.90;;;;;;4990313;28;20117;-73
2022/09/30 13:03:58;;;;;;;2.65;1.20;;;15.80;99.90;;;;;;4991257;28;20057;-72
2022/09/30 13:06:26;;;;;;;5.55;3.28;;;15.90;99.90;;;;;;5010439;28;20065;-73
2022/09/30 13:09:06;;;;;;;3.63;2.10;;;15.70;99.90;;;;;;4976057;28;20042;-73
2022/09/30 13:11:36;;;;;;;5.78;3.53;;;15.50;99.90;;;;;;5011321;28;20081;-73
2022/09/30 13:14:42;;;;;;;5.13;3.15;;;15.60;99.90;;;;;;5007900;28;20125;-73
2022/09/30 13:17:07;;;;;;;5.47;1.80;;;15.70;99.90;;;;;;4972033;28;20046;-72
2022/09/30 13:19:43;;;;;;;5.97;3.03;;;15.80;99.90;;;;;;4993002;28;20073;-73
2022/09/30 13:22:22;;;;;;;8.20;5.47;;;15.90;99.90;;;;;;5009838;28;20066;-72